Accueil
METAR-TAF:

METAR-TAF

Aéroports :

Aérodrome d'El Hierro

El Hierro, Espagne

latitude: 27-49N, longitude: 017-53W, altitude: 32 m

Observation

Le bulletin a été fait il y a 18 minutes, à 08:00 UTC
Vent 12 kt de est
Température 18°C
Humidité 56%
Pression 1026 hPa
Visibilité 10 km ou plus
Quelques nuages à une hauteur de 4000 ft
Nuages épars à une hauteur de 5000 ft

METAR: GCHI 050800Z 10012KT 9999 FEW040 SCT050 18/09 Q1026

Heure: 08:18 (08:18 UTC)

Prévision

Le bulletin a été fait il y a 6 heures et 18 minutes, à 02:00 UTC
Prévision valable du 05 à 03 UTC au 06 à 03 UTC
Vent 10 kt de nord-est
Visibilité 10 km ou plus
Nuages épars à une hauteur de 3000 ft
Probabilité 30% :
Temporairement
du 05 à 06 UTC au 05 à 12 UTC
pluie
Temporairement
du 05 à 08 UTC au 05 à 16 UTC
Vent 5 kt de est

TAF: GCHI 050200Z 0503/0603 04010KT 9999 SCT030 TX20/0514Z TN16/0506Z PROB30 TEMPO 0506/0512 RA TEMPO 0508/0516 10005KT

Observations et prévisions météorologiques de plus de 4000 aéroports (messages METAR et TAF).

Les stations disponibles sont représentées par des disques jaunes et rouges sur la carte.

Passer la souris dessus pour voir le nom de la station.

Cliquer dessus pour voir les observations et prévisions météorologiques.

Pour changer de carte: cliquez sur les boutons verts avec une croix noire pour zoomer, sur le bouton vert avec un tiret pour effectuer un zoom arrière, ou sur les flèches vertes pour les cartes adjacentes.


METAR-TAF: